Flinterduin — PEBT — position and weather

sailwx.info

Track history (hours):
 
Tides and Currents Weather Stations Pressure Air Temp Water Temp Dewpoint Dewpoint Depression Visibility Wind Speed Wind Dir Waves Ship Positions

Flinterduin

Last reported at 2014-Oct-24 18:29 UTC. Time now 2014-Oct-24 18:50 UTC.
Position N 51°42' E 004°35'.

Length 112 m; beam 15 m.

Type: Cargo ship. MMSI: 246484000.

Date/timePositionNaut miles runAvg speedWind from/ knotsBaromVisibWave heightAir tempDewpointWater temp
2014-Oct-24 18:29N 51°42' E 004°35'0 0.0
2014-Oct-24 17:32N 51°42' E 004°35'0 0.0
2014-Oct-24 16:20N 51°42' E 004°35'0 0.0
2014-Oct-24 15:29N 51°42' E 004°35'0 0.0
2014-Oct-24 14:29N 51°42' E 004°35'0 0.0
2014-Oct-24 13:29N 51°42' E 004°35'0 0.0
2014-Oct-24 12:29N 51°42' E 004°35'0 0.0
2014-Oct-24 11:32N 51°42' E 004°35'0 0.0
2014-Oct-24 10:32N 51°42' E 004°35'0 0.0
2014-Oct-24 09:26N 51°42' E 004°35'0 0.0
2014-Oct-24 08:26N 51°42' E 004°35'0 0.0
2014-Oct-24 07:29N 51°42' E 004°35'0 0.0
2014-Oct-24 06:32N 51°42' E 004°35'0 0.0
2014-Oct-24 05:32N 51°42' E 004°35'0 0.0
2014-Oct-24 04:23N 51°42' E 004°35'0 0.0
2014-Oct-24 03:32N 51°42' E 004°35'0 0.0
2014-Oct-24 02:11N 51°42' E 004°35'0 0.0
2014-Oct-24 01:23N 51°42' E 004°35'0 0.0
2014-Oct-24 00:23N 51°42' E 004°35'0 0.0
2014-Oct-23 23:26N 51°42' E 004°35'0 0.0
2014-Oct-23 22:26N 51°42' E 004°35'0 0.0
2014-Oct-23 21:17N 51°42' E 004°35'0 0.0
2014-Oct-23 19:23N 51°42' E 004°35'0 0.0
2014-Oct-23 18:32N 51°42' E 004°35'0 0.0
2014-Oct-23 17:31N 51°42' E 004°35'0 0.0
2014-Oct-23 16:31N 51°42' E 004°35'0 0.0
2014-Oct-23 15:28N 51°42' E 004°35'0 0.0
2014-Oct-23 14:31N 51°42' E 004°35'0 0.0
2014-Oct-23 13:32N 51°42' E 004°35'0 0.0
2014-Oct-23 12:32N 51°42' E 004°35'0 0.0
2014-Oct-23 11:31N 51°42' E 004°35'0 0.0
2014-Oct-23 10:31N 51°42' E 004°35'2 2.5
2014-Oct-23 09:33N 51°44' E 004°38'6 6.4
2014-Oct-23 08:33N 51°49' E 004°33'8 8.0
2014-Oct-23 07:34N 51°51' E 004°21'7 7.2
2014-Oct-23 06:34N 51°56' E 004°12'8 8.1
2014-Oct-23 05:34N 51°60' E 004°01'1111.0
2014-Oct-23 04:33N 51°58' E 003°43'1510.9
2014-Oct-23 03:13N 51°55' E 003°20'2110.9
2014-Oct-23 01:21N 51°48' E 002°49'911.5
2014-Oct-23 00:32N 51°44' E 002°35'1412.8
2014-Oct-22 23:28N 51°34' E 002°21'1212.5
2014-Oct-22 22:33N 51°24' E 002°10'1212.0
2014-Oct-22 21:33N 51°14' E 002°02'1211.9
2014-Oct-22 20:34N 51°07' E 001°47'1110.6
2014-Oct-22 19:33N 50°59' E 001°35'10 9.5
2014-Oct-22 18:32N 50°51' E 001°26'9 9.1
2014-Oct-22 17:33N 50°43' E 001°21'19 9.6
2014-Oct-22 15:32N 50°31' E 000°57'1110.3
2014-Oct-22 14:30N 50°28' E 000°41'  
2014-Oct-18 19:33N 38°04' W 009°40'1111.5
2014-Oct-18 18:33N 37°53' W 009°37'1111.5
2014-Oct-18 17:33N 37°42' W 009°34'1111.3
2014-Oct-18 16:33N 37°31' W 009°30'1111.2
2014-Oct-18 15:33N 37°20' W 009°27'88 9.4
2014-Oct-18 06:12N 36°26' W 008°01'710.7
2014-Oct-18 05:33N 36°24' W 007°52'11210.9
2014-Oct-17 19:20N 35°58' W 005°38'810.6
2014-Oct-17 18:33N 35°60' W 005°28'9 9.3
2014-Oct-17 17:34N 36°02' W 005°17'22111.1
2014-Oct-16 21:33N 36°36' W 000°46'4012.0
2014-Oct-16 18:13N 36°42' E 000°04'812.0
2014-Oct-16 17:33N 36°43' E 000°13'2711.2
2014-Oct-16 15:10N 36°48' E 000°46'1010.4
2014-Oct-16 14:10N 36°48' E 000°59'40610.4
2014-Oct-14 23:19N 37°42' E 009°24'810.1
2014-Oct-14 22:33N 37°42' E 009°34'  
Track history (hours):
 
Tides and Currents Weather Stations Pressure Air Temp Water Temp Dewpoint Dewpoint Depression Visibility Wind Speed Wind Dir Waves Ship Positions

Flinterduin

Last reported at 2014-Oct-24 18:29 UTC. Time now 2014-Oct-24 18:50 UTC.
Position N 51°42' E 004°35'.

Length 112 m; beam 15 m.

Type: Cargo ship. MMSI: 246484000.

Date/timePositionNaut miles runAvg speedWind from/ knotsBaromVisibWave heightAir tempDewpointWater temp
2014-Oct-24 18:29N 51°42' E 004°35'0 0.0
2014-Oct-24 17:32N 51°42' E 004°35'0 0.0
2014-Oct-24 16:20N 51°42' E 004°35'0 0.0
2014-Oct-24 15:29N 51°42' E 004°35'0 0.0
2014-Oct-24 14:29N 51°42' E 004°35'0 0.0
2014-Oct-24 13:29N 51°42' E 004°35'0 0.0
2014-Oct-24 12:29N 51°42' E 004°35'0 0.0
2014-Oct-24 11:32N 51°42' E 004°35'0 0.0
2014-Oct-24 10:32N 51°42' E 004°35'0 0.0
2014-Oct-24 09:26N 51°42' E 004°35'0 0.0
2014-Oct-24 08:26N 51°42' E 004°35'0 0.0
2014-Oct-24 07:29N 51°42' E 004°35'0 0.0
2014-Oct-24 06:32N 51°42' E 004°35'0 0.0
2014-Oct-24 05:32N 51°42' E 004°35'0 0.0
2014-Oct-24 04:23N 51°42' E 004°35'0 0.0
2014-Oct-24 03:32N 51°42' E 004°35'0 0.0
2014-Oct-24 02:11N 51°42' E 004°35'0 0.0
2014-Oct-24 01:23N 51°42' E 004°35'0 0.0
2014-Oct-24 00:23N 51°42' E 004°35'0 0.0
2014-Oct-23 23:26N 51°42' E 004°35'0 0.0
2014-Oct-23 22:26N 51°42' E 004°35'0 0.0
2014-Oct-23 21:17N 51°42' E 004°35'0 0.0
2014-Oct-23 19:23N 51°42' E 004°35'0 0.0
2014-Oct-23 18:32N 51°42' E 004°35'0 0.0
2014-Oct-23 17:31N 51°42' E 004°35'0 0.0
2014-Oct-23 16:31N 51°42' E 004°35'0 0.0
2014-Oct-23 15:28N 51°42' E 004°35'0 0.0
2014-Oct-23 14:31N 51°42' E 004°35'0 0.0
2014-Oct-23 13:32N 51°42' E 004°35'0 0.0
2014-Oct-23 12:32N 51°42' E 004°35'0 0.0
2014-Oct-23 11:31N 51°42' E 004°35'0 0.0
2014-Oct-23 10:31N 51°42' E 004°35'2 2.5
2014-Oct-23 09:33N 51°44' E 004°38'6 6.4
2014-Oct-23 08:33N 51°49' E 004°33'8 8.0
2014-Oct-23 07:34N 51°51' E 004°21'7 7.2
2014-Oct-23 06:34N 51°56' E 004°12'8 8.1
2014-Oct-23 05:34N 51°60' E 004°01'1111.0
2014-Oct-23 04:33N 51°58' E 003°43'1510.9
2014-Oct-23 03:13N 51°55' E 003°20'2110.9
2014-Oct-23 01:21N 51°48' E 002°49'911.5
2014-Oct-23 00:32N 51°44' E 002°35'1412.8
2014-Oct-22 23:28N 51°34' E 002°21'1212.5
2014-Oct-22 22:33N 51°24' E 002°10'1212.0
2014-Oct-22 21:33N 51°14' E 002°02'1211.9
2014-Oct-22 20:34N 51°07' E 001°47'1110.6
2014-Oct-22 19:33N 50°59' E 001°35'10 9.5
2014-Oct-22 18:32N 50°51' E 001°26'9 9.1
2014-Oct-22 17:33N 50°43' E 001°21'19 9.6
2014-Oct-22 15:32N 50°31' E 000°57'1110.3
2014-Oct-22 14:30N 50°28' E 000°41'  
2014-Oct-18 19:33N 38°04' W 009°40'1111.5
2014-Oct-18 18:33N 37°53' W 009°37'1111.5
2014-Oct-18 17:33N 37°42' W 009°34'1111.3
2014-Oct-18 16:33N 37°31' W 009°30'1111.2
2014-Oct-18 15:33N 37°20' W 009°27'88 9.4
2014-Oct-18 06:12N 36°26' W 008°01'710.7
2014-Oct-18 05:33N 36°24' W 007°52'11210.9
2014-Oct-17 19:20N 35°58' W 005°38'810.6
2014-Oct-17 18:33N 35°60' W 005°28'9 9.3
2014-Oct-17 17:34N 36°02' W 005°17'22111.1
2014-Oct-16 21:33N 36°36' W 000°46'4012.0
2014-Oct-16 18:13N 36°42' E 000°04'812.0
2014-Oct-16 17:33N 36°43' E 000°13'2711.2
2014-Oct-16 15:10N 36°48' E 000°46'1010.4
2014-Oct-16 14:10N 36°48' E 000°59'40610.4
2014-Oct-14 23:19N 37°42' E 009°24'810.1
2014-Oct-14 22:33N 37°42' E 009°34'  

Dump ship's entire track history